Henderson, NC

10:06 AM EST on January 18, 2017 (GMT -0500)
Lynne ave | | Change Station

Elev 400 ft 36.33 °N, 78.44 °W | Updated 1 minute ago

Clear
Clear
61.1 °F
Feels Like 61.1 °F
N
1.0
Wind Variable Wind from SSE
Gusts 7.0 mph

Today
High -- | Low -- °F
--% Chance of Precip.
Yesterday
High -- | Low -- °F
Precip. -- in
Pressure 29.98 in
Visibility 10.0 miles
Clouds Clear
Dew Point 55 °F
Humidity 81%
Rainfall 0.70 in
Snow Depth Not available.
7:23 AM 5:25 PM
Waning Gibbous, 62% visible
METAR KHNZ 181445Z AUTO 31010G20KT 10SM CLR 15/10 A2998 RMK AO2 T01540096
Pressure 29.98 in
Visibility 10.0 miles
Clouds Clear
Dew Point 55 °F
Humidity 81%
Rainfall 0.70 in
Snow Depth Not available.
7:23 AM 5:25 PM
Waning Gibbous, 62% visible
METAR KHNZ 181445Z AUTO 31010G20KT 10SM CLR 15/10 A2998 RMK AO2 T01540096

Get Your Daily Forecast Email!

Thanks for signing up!

Be on the lookout for a verification email in your inbox.

You'll start receiving the daily forecast at 8 AM.

×

10-Day Weather Forecast

Almanac

Astronomy

Jan. 18, 2017 Rise Set
Actual Time
Civil Twilight
Nautical Twilight
Astronomical Twilight
Moon
Length of Visible Light
Length of Day
Tomorrow will be .
, % of the Moon is Illuminated

Today's Extremes

State Highs State Lows

Community

WunderPhotos

Upload Photos

1,962,540 photos uploaded!

WunderBlog® & News

Nearby

Air Quality

  Air Quality AQ Index Pollutant
Not available.

Snow Depth

Station Depth Elevation

Earthquake Activity

City Distance Mag. Time & Date
Minimum magnitude displayed is 2.5.

Coastal Water Temperatures

Place Temperature

Stations

Nearby Weather Stations

Station Location Temp. Windchill Dew Point Humidity Wind Precip. Elev Updated Type
                   

Watches & Warnings

There are currently no watches in effect.